Time;durP1;ratioP1;P1;durP2;ratioP2;P2;SDS_P1;SDS_P2;PMS_P1;PMS_P2;Temp;Humidity;BMP_temperature;BMP_pressure;BME280_temperature;BME280_humidity;BME280_pressure;Samples;Min_cycle;Max_cycle;Signal;HPM_P1;HPM_P2
2022/04/10 00:01:30;;;;;;;;;27.00;24.50;;;;;12.00;47.03;101755.16;5081548;28;62016;-79
2022/04/10 00:03:59;;;;;;;;;34.00;27.50;;;;;11.99;46.85;101757.69;5082355;28;61864;-79
2022/04/10 00:06:25;;;;;;;;;32.00;28.50;;;;;11.95;46.72;101753.97;5082252;28;61836;-79
2022/04/10 00:08:51;;;;;;;;;31.50;27.50;;;;;11.95;46.84;101758.34;5096962;27;63948;-79
2022/04/10 00:11:17;;;;;;;;;29.25;25.00;;;;;11.89;47.22;101751.03;5082205;28;61718;-79
2022/04/10 00:13:43;;;;;;;;;24.25;23.00;;;;;11.86;46.57;101749.09;5081012;28;61887;-79
2022/04/10 00:16:08;;;;;;;;;27.00;24.75;;;;;11.86;46.81;101740.28;5082653;28;61795;-80
2022/04/10 00:18:37;;;;;;;;;26.00;22.00;;;;;11.87;47.05;101739.50;5081496;28;62066;-80
2022/04/10 00:21:04;;;;;;;;;28.00;23.75;;;;;11.83;47.20;101733.16;5081904;28;61918;-79
2022/04/10 00:23:30;;;;;;;;;28.25;25.25;;;;;11.81;47.60;101740.06;5082132;28;62090;-79
2022/04/10 00:25:55;;;;;;;;;31.00;24.00;;;;;11.80;47.87;101737.31;5080996;28;61833;-79
2022/04/10 00:28:21;;;;;;;;;31.00;28.00;;;;;11.76;48.04;101738.91;5081112;28;61775;-79
2022/04/10 00:30:47;;;;;;;;;25.75;24.25;;;;;11.75;48.06;101741.44;5083619;28;62121;-79
2022/04/10 00:33:12;;;;;;;;;31.00;26.00;;;;;11.72;48.34;101738.63;5085656;28;61908;-80
2022/04/10 00:35:38;;;;;;;;;34.75;28.50;;;;;11.71;48.34;101743.00;5085555;28;61801;-80
2022/04/10 00:38:04;;;;;;;;;28.25;23.25;;;;;11.69;48.45;101741.09;5084730;28;62098;-79
2022/04/10 00:40:29;;;;;;;;;29.50;24.75;;;;;11.65;48.29;101740.03;5085747;28;61894;-79
2022/04/10 00:42:55;;;;;;;;;25.00;21.25;;;;;11.61;48.54;101738.97;5100598;27;62146;-80
2022/04/10 00:45:23;;;;;;;;;24.75;24.50;;;;;11.58;48.48;101740.50;5085993;28;61925;-80
2022/04/10 00:47:49;;;;;;;;;29.00;27.25;;;;;11.53;48.32;101745.50;5084704;28;61845;-79
2022/04/10 00:50:16;;;;;;;;;30.00;24.00;;;;;11.50;48.30;101750.59;5101238;27;61805;-79
2022/04/10 00:52:43;;;;;;;;;27.25;24.75;;;;;11.50;48.28;101747.06;5085201;28;61878;-79
2022/04/10 00:55:09;;;;;;;;;26.50;24.00;;;;;11.45;48.28;101738.91;5101367;27;61993;-79
2022/04/10 00:57:35;;;;;;;;;25.50;23.25;;;;;11.43;48.10;101738.81;5084066;28;61834;-79
2022/04/10 01:00:02;;;;;;;;;34.00;28.25;;;;;11.42;48.23;101742.28;5084996;28;61820;-79
2022/04/10 01:02:27;;;;;;;;;32.50;26.50;;;;;11.44;48.13;101732.75;5084892;28;61956;-79
2022/04/10 01:04:52;;;;;;;;;28.75;27.25;;;;;11.40;48.29;101741.28;5100866;27;61984;-79
2022/04/10 01:07:20;;;;;;;;;30.75;28.00;;;;;11.39;48.21;101741.19;5084468;28;61981;-80
2022/04/10 01:09:46;;;;;;;;;29.25;23.75;;;;;11.40;48.14;101748.28;5084745;28;61999;-80
2022/04/10 01:12:11;;;;;;;;;32.00;24.00;;;;;11.33;48.41;101740.84;5084424;28;61882;-79
2022/04/10 01:14:38;;;;;;;;;32.50;26.00;;;;;11.31;48.86;101743.41;5085254;28;61755;-80
2022/04/10 01:17:08;;;;;;;;;27.75;23.25;;;;;11.25;47.68;101743.06;5084051;28;62685;-79
2022/04/10 01:19:34;;;;;;;;;20.00;20.00;;;;;11.23;48.25;101739.44;5084650;28;61779;-80
2022/04/10 01:22:04;;;;;;;;;32.50;25.75;;;;;11.27;48.61;101736.16;5084612;28;62363;-80
2022/04/10 01:24:31;;;;;;;;;27.50;25.50;;;;;11.25;48.83;101741.31;5100855;27;61940;-79
2022/04/10 01:26:56;;;;;;;;;25.50;24.00;;;;;11.22;48.21;101745.50;5083729;28;61760;-79
2022/04/10 01:29:22;;;;;;;;;34.25;21.25;;;;;11.20;48.28;101742.81;5084409;28;62025;-79
2022/04/10 01:31:47;;;;;;;;;29.50;23.25;;;;;11.18;48.60;101740.88;5084785;28;61699;-80
2022/04/10 01:34:15;;;;;;;;;24.75;23.25;;;;;11.16;48.56;101732.94;5100479;27;61847;-79
2022/04/10 01:36:42;;;;;;;;;31.00;23.50;;;;;11.12;48.80;101744.09;5083760;28;62973;-79
2022/04/10 01:39:09;;;;;;;;;24.75;22.25;;;;;11.10;48.77;101735.19;5084247;28;61699;-80
2022/04/10 01:41:35;;;;;;;;;25.25;22.25;;;;;11.09;49.25;101740.34;5083692;28;62044;-80
2022/04/10 01:44:02;;;;;;;;;30.25;25.50;;;;;11.08;49.45;101749.06;5084346;28;61877;-79
2022/04/10 01:46:29;;;;;;;;;27.50;23.00;;;;;11.05;49.08;101741.91;5083941;28;61884;-79
2022/04/10 01:48:55;;;;;;;;;35.25;25.75;;;;;11.03;49.33;101736.56;5083986;28;61886;-80
2022/04/10 01:51:20;;;;;;;;;27.25;24.00;;;;;11.02;49.39;101740.00;5084453;28;61955;-79
2022/04/10 01:53:46;;;;;;;;;31.25;26.75;;;;;10.99;49.47;101731.97;5084443;28;61890;-79
2022/04/10 01:56:12;;;;;;;;;35.25;26.75;;;;;10.98;49.52;101727.50;5098945;27;63698;-80
2022/04/10 01:58:40;;;;;;;;;29.00;26.00;;;;;10.95;49.71;101729.97;5099623;27;62154;-79
2022/04/10 02:01:07;;;;;;;;;32.25;28.75;;;;;10.96;49.87;101728.25;5083855;28;61882;-80
2022/04/10 02:03:34;;;;;;;;;31.75;31.00;;;;;10.93;49.83;101731.59;5083972;28;61768;-79
2022/04/10 02:06:00;;;;;;;;;22.00;20.00;;;;;10.90;49.91;101722.63;5099336;27;64666;-79
2022/04/10 02:08:27;;;;;;;;;38.00;31.00;;;;;10.89;49.64;101716.47;5084037;28;62008;-79
2022/04/10 02:10:53;;;;;;;;;25.00;21.25;;;;;10.87;49.88;101725.09;5083745;27;61734;-79
2022/04/10 02:13:19;;;;;;;;;25.75;25.75;;;;;10.90;49.71;101727.88;5083700;28;61738;-79
2022/04/10 02:15:45;;;;;;;;;25.75;23.25;;;;;10.82;49.98;101728.34;5099285;27;64056;-79
2022/04/10 02:18:10;;;;;;;;;27.75;25.00;;;;;10.80;50.11;101726.47;5083635;28;61865;-80
2022/04/10 02:20:36;;;;;;;;;25.50;23.25;;;;;10.78;50.02;101728.09;5083519;28;62247;-79
2022/04/10 02:23:01;;;;;;;;;37.00;25.50;;;;;10.76;50.21;101724.47;5083431;28;61839;-80
2022/04/10 02:25:27;;;;;;;;;28.50;22.75;;;;;10.80;49.95;101729.97;5082927;28;61789;-79
2022/04/10 02:27:52;;;;;;;;;24.75;23.75;;;;;10.74;50.04;101729.63;5083524;28;62070;-79
2022/04/10 02:30:18;;;;;;;;;25.75;24.75;;;;;10.69;50.27;101733.69;5083618;28;61839;-79
2022/04/10 02:32:44;;;;;;;;;28.75;27.00;;;;;10.68;50.14;101734.50;5083902;28;61922;-80
2022/04/10 02:35:10;;;;;;;;;27.25;23.50;;;;;10.69;50.33;101736.31;5083161;28;61858;-79
2022/04/10 02:37:36;;;;;;;;;31.00;25.25;;;;;10.69;50.41;101731.06;5083664;28;61905;-79
2022/04/10 02:40:04;;;;;;;;;29.25;25.00;;;;;10.65;50.31;101742.22;5098918;27;61971;-79
2022/04/10 02:42:33;;;;;;;;;38.50;24.75;;;;;10.58;50.59;101734.75;5083143;28;62479;-79
2022/04/10 02:45:03;;;;;;;;;31.00;28.25;;;;;10.56;50.38;101736.38;5082960;28;62201;-80
2022/04/10 02:47:30;;;;;;;;;30.00;26.00;;;;;10.55;50.48;101734.59;5083545;28;61679;-79
2022/04/10 02:49:56;;;;;;;;;33.50;30.25;;;;;10.52;50.46;101729.13;5099308;27;62111;-79
2022/04/10 02:52:22;;;;;;;;;35.00;29.50;;;;;10.49;50.81;101737.75;5083025;28;61955;-79
2022/04/10 02:54:47;;;;;;;;;31.00;28.00;;;;;10.46;50.95;101742.81;5081727;28;62154;-79
2022/04/10 02:57:13;;;;;;;;;39.50;33.50;;;;;10.47;50.86;101736.75;5083047;28;62154;-79
2022/04/10 02:59:38;;;;;;;;;42.75;32.00;;;;;10.44;50.55;101747.06;5083089;28;61852;-79
2022/04/10 03:02:04;;;;;;;;;46.50;36.25;;;;;10.41;50.36;101745.19;5098873;27;62075;-79
2022/04/10 03:04:29;;;;;;;;;38.00;31.50;;;;;10.39;50.96;101735.38;5082711;28;62207;-79
2022/04/10 03:06:55;;;;;;;;;34.25;33.00;;;;;10.37;50.89;101744.91;5098726;27;62312;-78
2022/04/10 03:09:21;;;;;;;;;31.75;25.25;;;;;10.35;50.74;101741.28;5082785;28;61892;-79
2022/04/10 03:11:46;;;;;;;;;45.50;37.00;;;;;10.32;50.73;101741.97;5083977;28;61913;-79
2022/04/10 03:14:12;;;;;;;;;33.25;33.25;;;;;10.30;51.11;101746.22;5082054;28;62762;-79
2022/04/10 03:16:38;;;;;;;;;38.00;29.25;;;;;10.29;50.71;101748.75;5083201;28;61887;-80
2022/04/10 03:19:03;;;;;;;;;30.25;25.00;;;;;10.27;50.74;101750.38;5083045;28;62044;-80
2022/04/10 03:21:29;;;;;;;;;39.75;31.50;;;;;10.26;50.96;101746.81;5082309;28;61829;-79
2022/04/10 03:23:55;;;;;;;;;36.50;28.75;;;;;10.23;50.65;101750.16;5082351;28;62149;-79
2022/04/10 03:26:20;;;;;;;;;35.50;30.75;;;;;10.20;50.77;101752.59;5081084;28;62146;-79
2022/04/10 03:28:46;;;;;;;;;31.00;28.75;;;;;10.23;51.16;101752.78;5082653;27;61987;-79
2022/04/10 03:31:11;;;;;;;;;34.25;31.00;;;;;10.15;50.97;101746.16;5083002;28;61717;-79
2022/04/10 03:33:36;;;;;;;;;36.25;29.00;;;;;10.15;51.43;101747.88;5081965;27;61756;-79
2022/04/10 03:36:02;;;;;;;;;35.00;27.00;;;;;10.15;51.09;101750.50;5082158;27;61623;-79
2022/04/10 03:38:27;;;;;;;;;34.00;30.00;;;;;10.13;51.55;101745.19;5080935;28;61850;-79
2022/04/10 03:40:53;;;;;;;;;32.25;32.00;;;;;10.11;51.26;101751.13;5081517;28;62165;-79
2022/04/10 03:43:19;;;;;;;;;27.75;27.50;;;;;10.10;51.40;101750.22;5081469;27;62051;-79
2022/04/10 03:45:44;;;;;;;;;31.25;29.75;;;;;10.09;51.20;101747.50;5083020;27;62162;-79
2022/04/10 03:48:10;;;;;;;;;27.75;25.25;;;;;10.07;51.08;101751.75;5082482;27;61930;-79
2022/04/10 03:50:35;;;;;;;;;30.75;28.00;;;;;10.05;51.63;101754.28;5082737;27;62142;-79
2022/04/10 03:53:03;;;;;;;;;29.50;26.75;;;;;10.02;51.10;101752.34;5081824;27;62738;-79
2022/04/10 03:55:29;;;;;;;;;27.50;21.50;;;;;10.01;51.61;101749.66;5082012;28;61740;-79
2022/04/10 03:57:54;;;;;;;;;37.75;30.75;;;;;10.01;51.09;101747.03;5082580;28;61952;-79
2022/04/10 04:00:20;;;;;;;;;37.25;29.00;;;;;10.01;51.37;101744.41;5082618;27;61822;-79
2022/04/10 04:02:46;;;;;;;;;30.00;26.00;;;;;10.01;50.81;101757.53;5081532;27;61775;-79
2022/04/10 04:05:12;;;;;;;;;25.00;24.25;;;;;9.98;50.95;101754.69;5081960;27;61940;-79
2022/04/10 04:07:38;;;;;;;;;29.75;24.50;;;;;9.96;51.30;101748.44;5082255;27;62004;-79
2022/04/10 04:10:05;;;;;;;;;32.75;30.00;;;;;9.95;51.23;101741.41;5081125;28;61893;-79
2022/04/10 04:12:31;;;;;;;;;27.50;23.50;;;;;9.90;51.40;101735.00;5081074;28;62138;-79
2022/04/10 04:14:57;;;;;;;;;26.75;22.75;;;;;9.89;50.57;101741.03;5082242;27;61710;-79
2022/04/10 04:17:22;;;;;;;;;29.75;27.00;;;;;9.83;50.70;101739.84;5097669;27;61934;-79
2022/04/10 04:19:50;;;;;;;;;26.00;22.25;;;;;9.81;51.30;101743.16;5081850;27;61871;-79
2022/04/10 04:22:16;;;;;;;;;25.25;25.00;;;;;9.78;51.16;101749.13;5081400;28;62507;-79
2022/04/10 04:24:42;;;;;;;;;18.00;13.75;;;;;9.78;51.28;101746.50;5082183;27;61848;-79
2022/04/10 04:27:07;;;;;;;;;26.25;23.25;;;;;9.77;51.10;101749.94;5082363;27;61757;-79
2022/04/10 04:29:33;;;;;;;;;31.75;27.75;;;;;9.74;51.30;101754.06;5081774;28;62007;-79
2022/04/10 04:31:58;;;;;;;;;28.00;25.50;;;;;9.72;51.44;101756.59;5081594;27;61934;-79
2022/04/10 04:34:24;;;;;;;;;21.75;21.50;;;;;9.71;52.06;101764.38;5081450;27;61832;-79
2022/04/10 04:36:49;;;;;;;;;20.25;20.25;;;;;9.70;52.16;101763.44;5080568;28;62299;-79
2022/04/10 04:39:15;;;;;;;;;29.25;26.00;;;;;9.72;51.78;101763.56;5082035;27;61860;-79
2022/04/10 04:41:40;;;;;;;;;27.50;22.25;;;;;9.64;51.46;101770.94;5080654;27;61906;-79
2022/04/10 04:44:06;;;;;;;;;26.25;24.00;;;;;9.67;51.68;101772.84;5081608;27;61988;-79
2022/04/10 04:46:32;;;;;;;;;37.00;23.25;;;;;9.66;51.89;101781.50;5082215;27;62015;-80
2022/04/10 04:48:57;;;;;;;;;27.75;25.50;;;;;9.60;52.33;101785.56;5081587;27;61801;-79
2022/04/10 04:51:23;;;;;;;;;25.75;24.00;;;;;9.60;51.93;101790.81;5081533;27;61778;-79
2022/04/10 04:53:48;;;;;;;;;22.00;21.00;;;;;9.58;52.34;101791.53;5081802;27;61979;-79
2022/04/10 04:56:16;;;;;;;;;21.50;19.00;;;;;9.56;52.47;101786.19;5080326;28;61682;-79
2022/04/10 04:58:50;;;;;;;;;20.50;19.25;;;;;9.58;51.98;101794.16;5081771;28;61771;-79
2022/04/10 05:01:15;;;;;;;;;24.25;15.25;;;;;9.56;52.24;101796.66;5079804;28;63352;-80
2022/04/10 05:03:41;;;;;;;;;22.75;20.25;;;;;9.54;52.62;101795.66;5080909;27;61741;-79
2022/04/10 05:06:06;;;;;;;;;23.25;18.75;;;;;9.59;52.17;101801.19;5098042;27;62216;-79
2022/04/10 05:08:32;;;;;;;;;19.00;19.00;;;;;9.57;52.27;101802.81;5097714;27;61759;-79
2022/04/10 05:10:59;;;;;;;;;26.00;21.50;;;;;9.59;52.60;101806.44;5080671;27;61915;-79
2022/04/10 05:13:25;;;;;;;;;17.50;17.50;;;;;9.53;51.81;101796.47;5081299;28;61992;-79
2022/04/10 05:15:51;;;;;;;;;20.75;13.00;;;;;9.53;52.07;101803.41;5081672;27;61659;-79
2022/04/10 05:18:17;;;;;;;;;24.75;18.75;;;;;9.51;52.14;101803.34;5083609;27;61885;-79
2022/04/10 05:20:43;;;;;;;;;27.00;25.00;;;;;9.53;51.87;101799.09;5084978;27;62134;-80
2022/04/10 05:23:09;;;;;;;;;25.75;21.00;;;;;9.52;52.47;101801.59;5084165;28;62086;-80
2022/04/10 05:25:36;;;;;;;;;18.75;18.25;;;;;9.51;52.19;101805.03;5084766;28;61965;-79
2022/04/10 05:28:01;;;;;;;;;22.00;18.75;;;;;9.50;51.32;101806.75;5084479;27;61757;-79
2022/04/10 05:30:27;;;;;;;;;25.25;20.50;;;;;9.50;51.58;101804.13;5083975;28;61825;-79
2022/04/10 05:32:52;;;;;;;;;25.25;20.25;;;;;9.51;52.01;101811.19;5084172;27;61974;-79
2022/04/10 05:35:19;;;;;;;;;22.25;20.50;;;;;9.53;52.24;101817.44;5084939;27;61819;-79
2022/04/10 05:37:44;;;;;;;;;26.75;21.25;;;;;9.53;52.37;101817.44;5099640;27;62121;-79
2022/04/10 05:40:10;;;;;;;;;28.00;25.75;;;;;9.55;52.04;101818.41;5083925;27;61857;-79
2022/04/10 05:42:43;;;;;;;;;18.75;16.50;;;;;9.56;51.89;101828.09;5082935;28;61860;-79
2022/04/10 05:45:09;;;;;;;;;22.00;21.50;;;;;9.59;52.05;101835.25;5083534;28;62082;-80
2022/04/10 05:47:36;;;;;;;;;25.25;21.75;;;;;9.62;52.02;101830.25;5084394;27;61953;-79
2022/04/10 05:50:02;;;;;;;;;23.75;20.00;;;;;9.64;51.73;101833.88;5084216;27;61833;-79
2022/04/10 05:52:28;;;;;;;;;31.50;25.00;;;;;9.67;51.42;101830.53;5084786;27;61835;-79
2022/04/10 05:55:00;;;;;;;;;22.25;22.25;;;;;9.74;51.87;101841.50;5083080;28;61846;-79
2022/04/10 05:57:26;;;;;;;;;21.00;19.00;;;;;9.74;51.33;101837.97;5085030;27;61846;-79
2022/04/10 05:59:51;;;;;;;;;24.50;24.50;;;;;9.74;51.47;101844.13;5083628;27;61853;-79
2022/04/10 06:02:17;;;;;;;;;30.00;25.25;;;;;9.79;51.54;101840.09;5086389;27;61891;-79
2022/04/10 06:04:42;;;;;;;;;30.75;25.25;;;;;9.81;51.33;101833.25;5089640;28;61868;-79
2022/04/10 06:07:08;;;;;;;;;26.00;25.00;;;;;9.86;51.28;101843.13;5085170;27;61850;-79
2022/04/10 06:09:33;;;;;;;;;29.00;24.50;;;;;9.88;51.80;101842.41;5099679;27;63887;-79
2022/04/10 06:11:58;;;;;;;;;30.50;25.25;;;;;9.93;51.51;101845.31;5083808;27;62143;-79
2022/04/10 06:14:24;;;;;;;;;26.50;23.00;;;;;9.96;51.43;101843.81;5084264;27;61976;-79
2022/04/10 06:16:49;;;;;;;;;26.50;22.50;;;;;9.94;51.46;101845.41;5082638;28;61860;-81
2022/04/10 06:19:19;;;;;;;;;36.50;26.75;;;;;9.99;51.04;101845.72;5079124;28;61813;-80
2022/04/10 06:21:45;;;;;;;;;40.75;27.00;;;;;10.03;51.28;101850.34;5083736;28;62004;-80
2022/04/10 06:24:10;;;;;;;;;26.00;24.75;;;;;10.07;51.21;101859.28;5083023;28;61925;-81
2022/04/10 06:26:36;;;;;;;;;31.00;28.75;;;;;10.10;50.79;101860.41;5099114;27;61756;-80
2022/04/10 06:29:01;;;;;;;;;32.75;26.75;;;;;10.14;51.37;101851.03;5081472;27;61823;-81
2022/04/10 06:31:27;;;;;;;;;27.75;24.50;;;;;10.26;50.96;101840.38;5082576;27;61960;-81
2022/04/10 06:33:54;;;;;;;;;29.00;25.50;;;;;10.34;50.39;101850.56;5082639;27;61849;-81
2022/04/10 06:36:19;;;;;;;;;25.75;21.75;;;;;10.38;50.54;101847.31;5083045;28;61977;-81
2022/04/10 06:38:45;;;;;;;;;29.25;26.50;;;;;10.48;50.29;101842.66;5097751;27;63697;-81
2022/04/10 06:41:11;;;;;;;;;29.75;26.75;;;;;10.57;50.65;101846.75;5082493;27;61768;-82
2022/04/10 06:43:36;;;;;;;;;34.75;29.50;;;;;10.67;50.05;101848.22;5081980;27;61794;-81
2022/04/10 06:46:04;;;;;;;;;28.75;24.50;;;;;10.77;49.62;101845.31;5082739;27;61818;-82
2022/04/10 06:48:29;;;;;;;;;33.00;27.00;;;;;10.93;49.67;101849.81;5082214;28;62088;-81
2022/04/10 06:50:54;;;;;;;;;29.00;27.25;;;;;11.19;48.76;101842.56;5082418;27;61731;-81
2022/04/10 06:53:20;;;;;;;;;25.00;23.50;;;;;11.53;48.30;101839.28;5082359;27;61851;-81
2022/04/10 06:55:45;;;;;;;;;31.25;26.50;;;;;12.03;47.66;101833.34;5090109;27;61812;-81
2022/04/10 06:58:11;;;;;;;;;32.75;27.75;;;;;12.59;46.01;101839.88;5081183;27;62826;-81
2022/04/10 07:00:38;;;;;;;;;34.50;28.00;;;;;13.13;44.54;101838.28;5097774;27;62047;-82
2022/04/10 07:03:04;;;;;;;;;35.00;27.25;;;;;13.68;44.12;101827.88;5081898;28;61831;-79
2022/04/10 07:05:29;;;;;;;;;36.25;35.00;;;;;14.14;42.81;101825.63;5083331;27;61718;-80
2022/04/10 07:07:55;;;;;;;;;33.75;30.00;;;;;14.78;42.43;101830.31;5082447;27;61761;-80
2022/04/10 07:10:21;;;;;;;;;34.25;28.75;;;;;15.12;41.28;101825.66;5082725;27;61954;-83
2022/04/10 07:12:46;;;;;;;;;37.75;33.50;;;;;15.21;40.98;101825.16;5082501;27;61904;-84
2022/04/10 07:15:12;;;;;;;;;42.50;34.50;;;;;15.33;40.70;101811.50;5082947;27;61802;-83
2022/04/10 07:17:37;;;;;;;;;31.75;29.00;;;;;15.50;40.17;101822.78;5082058;28;62700;-77
2022/04/10 07:20:03;;;;;;;;;26.50;24.00;;;;;15.83;39.73;101811.78;5078348;27;61855;-80
2022/04/10 07:25:12;;;;;;;;;40.00;31.75;;;;;15.78;38.22;101816.91;5084180;28;61754;-89
2022/04/10 07:27:38;;;;;;;;;31.00;25.00;;;;;15.65;39.70;101826.06;5081985;27;62120;-84
2022/04/10 07:30:04;;;;;;;;;36.50;31.75;;;;;15.49;39.75;101821.91;5081167;28;61809;-79
2022/04/10 07:32:30;;;;;;;;;30.75;29.75;;;;;15.35;40.37;101825.72;5098189;27;61821;-80
2022/04/10 07:34:55;;;;;;;;;38.50;32.75;;;;;15.20;40.06;101820.69;5083049;27;62187;-80
2022/04/10 07:37:20;;;;;;;;;40.25;33.75;;;;;15.12;40.59;101830.94;5081062;27;61803;-80
2022/04/10 07:39:46;;;;;;;;;33.25;28.50;;;;;15.01;41.30;101831.31;5081422;27;61913;-79
2022/04/10 07:42:11;;;;;;;;;32.50;30.50;;;;;15.05;41.49;101830.59;5081722;27;61820;-80
2022/04/10 07:44:37;;;;;;;;;35.50;29.50;;;;;15.01;41.09;101828.66;5081811;27;61730;-79
2022/04/10 07:49:47;;;;;;;;;39.00;32.00;;;;;14.97;41.86;101830.25;5082229;28;61790;-78
2022/04/10 07:52:22;;;;;;;;;42.00;31.75;;;;;14.96;41.93;101825.84;5081805;27;61780;-84
2022/04/10 07:54:49;;;;;;;;;35.75;34.50;;;;;15.03;42.49;101824.34;5082566;27;61733;-80
2022/04/10 07:57:16;;;;;;;;;40.25;36.00;;;;;15.07;41.68;101827.19;5080891;27;61731;-80
2022/04/10 07:59:43;;;;;;;;;35.25;32.25;;;;;15.13;42.24;101826.56;5080769;27;61889;-81
2022/04/10 08:02:08;;;;;;;;;33.75;33.75;;;;;15.17;41.88;101822.28;5082206;28;62047;-84
2022/04/10 08:04:34;;;;;;;;;36.75;34.00;;;;;15.19;42.06;101823.25;5081568;28;62001;-86
2022/04/10 08:06:59;;;;;;;;;39.00;35.75;;;;;15.19;41.53;101829.47;5079965;28;63794;-83
2022/04/10 08:09:25;;;;;;;;;47.50;35.00;;;;;15.17;42.13;101825.84;5081533;28;61785;-84
2022/04/10 08:11:50;;;;;;;;;34.75;30.00;;;;;15.13;41.85;101821.28;5082159;27;61782;-83
2022/04/10 08:14:16;;;;;;;;;46.00;36.25;;;;;15.15;42.18;101819.59;5081524;27;62233;-82
2022/04/10 08:16:42;;;;;;;;;34.50;33.00;;;;;15.15;41.58;101829.28;5091233;27;63738;-80
2022/04/10 08:19:07;;;;;;;;;35.75;33.25;;;;;15.16;41.95;101820.50;5078565;28;62387;-80
2022/04/10 08:21:33;;;;;;;;;34.50;34.50;;;;;15.14;42.20;101817.78;5083065;27;61862;-80
2022/04/10 08:23:58;;;;;;;;;38.75;33.75;;;;;15.18;41.88;101821.47;5083372;27;61883;-80
2022/04/10 08:26:24;;;;;;;;;35.50;29.75;;;;;15.26;41.17;101817.41;5083111;28;62269;-77
2022/04/10 08:28:49;;;;;;;;;40.50;31.75;;;;;15.29;41.32;101817.50;5083328;28;61779;-81
2022/04/10 08:31:15;;;;;;;;;33.00;29.50;;;;;15.33;41.16;101820.34;5082297;28;61863;-80
2022/04/10 08:33:40;;;;;;;;;33.50;29.00;;;;;15.33;41.21;101815.06;5081914;27;61987;-75
2022/04/10 08:36:06;;;;;;;;;29.75;29.75;;;;;15.33;40.44;101817.69;5080942;27;62071;-79
2022/04/10 08:38:31;;;;;;;;;33.00;32.00;;;;;15.31;40.34;101814.09;5080805;28;61743;-79
2022/04/10 08:41:00;;;;;;;;;34.50;33.25;;;;;15.34;40.94;101823.91;5080837;28;61700;-79
2022/04/10 08:43:26;;;;;;;;;37.75;32.50;;;;;15.37;41.16;101820.50;5079897;28;62053;-79
2022/04/10 08:45:55;;;;;;;;;33.00;30.25;;;;;15.38;39.86;101822.28;5089469;27;63828;-77
2022/04/10 08:48:22;;;;;;;;;30.75;29.50;;;;;15.38;40.42;101822.28;5059676;28;62191;-78
2022/04/10 08:50:48;;;;;;;;;33.00;30.25;;;;;15.45;40.47;101822.59;5095785;27;61952;-78
2022/04/10 08:53:16;;;;;;;;;39.25;28.00;;;;;15.56;40.44;101823.03;5082622;27;61855;-79
2022/04/10 08:55:41;;;;;;;;;24.00;21.50;;;;;15.61;39.63;101824.13;5082553;28;61820;-78
2022/04/10 08:58:06;;;;;;;;;21.00;21.00;;;;;15.64;38.53;101816.31;5082226;28;61973;-79
2022/04/10 09:00:35;;;;;;;;;26.50;22.50;;;;;15.68;38.88;101820.91;5083288;27;61903;-81
2022/04/10 09:03:00;;;;;;;;;23.75;18.00;;;;;15.69;38.94;101820.03;5082784;28;62050;-84
2022/04/10 09:05:26;;;;;;;;;12.25;12.00;;;;;15.66;37.92;101821.66;5081913;27;62595;-81
2022/04/10 09:08:11;;;;;;;;;15.00;11.75;;;;;15.67;37.41;101827.03;5082506;27;62069;-81
2022/04/10 09:11:06;;;;;;;;;10.00;10.00;;;;;15.69;36.88;101812.09;5093999;27;61733;-78
2022/04/10 09:13:49;;;;;;;;;7.50;6.50;;;;;15.70;36.52;101805.06;5078059;28;61892;-80
2022/04/10 09:16:18;;;;;;;;;11.00;10.00;;;;;15.65;35.26;101818.13;5078994;27;62026;-79
2022/04/10 09:18:51;;;;;;;;;10.00;7.00;;;;;15.65;37.00;101812.81;5079130;28;62097;-80
2022/04/10 09:21:19;;;;;;;;;8.00;7.25;;;;;15.70;36.92;101810.34;5082045;28;61781;-80
2022/04/10 09:24:12;;;;;;;;;13.50;10.00;;;;;15.79;37.18;101815.16;5079763;28;61966;-80
2022/04/10 09:26:48;;;;;;;;;11.50;9.50;;;;;15.82;35.90;101810.00;5078240;28;61953;-79
2022/04/10 09:29:24;;;;;;;;;11.00;10.50;;;;;15.84;36.61;101810.97;5079450;28;61963;-80
2022/04/10 09:31:51;;;;;;;;;8.00;7.75;;;;;15.88;36.56;101816.44;5080232;28;62208;-80
2022/04/10 09:34:21;;;;;;;;;6.00;6.00;;;;;15.85;36.68;101813.66;5091909;27;62249;-78
2022/04/10 09:37:00;;;;;;;;;7.00;7.00;;;;;15.88;37.10;101812.88;5096835;27;64072;-79
2022/04/10 09:39:34;;;;;;;;;11.00;9.75;;;;;15.91;35.70;101815.63;5080366;28;62012;-81
2022/04/10 09:42:06;;;;;;;;;7.50;7.50;;;;;15.87;35.42;101816.34;5080846;28;61814;-80
2022/04/10 09:44:40;;;;;;;;;8.25;8.25;;;;;15.86;35.78;101812.81;5081565;28;62086;-81
2022/04/10 09:47:08;;;;;;;;;7.75;6.75;;;;;15.90;35.32;101816.50;5081191;28;65235;-81
2022/04/10 09:49:38;;;;;;;;;6.50;6.00;;;;;15.92;34.70;101822.75;5078290;28;61740;-85
2022/04/10 09:52:14;;;;;;;;;8.00;6.25;;;;;15.95;34.89;101812.25;5081403;27;61974;-81
2022/04/10 09:54:46;;;;;;;;;10.50;5.25;;;;;16.04;35.38;101817.00;5080725;28;61964;-80
2022/04/10 09:57:19;;;;;;;;;8.50;5.75;;;;;16.04;34.31;101814.38;5081865;28;62759;-80
2022/04/10 09:59:47;;;;;;;;;7.00;5.75;;;;;16.03;33.34;101804.63;5085840;27;61930;-81
2022/04/10 10:02:15;;;;;;;;;8.25;6.00;;;;;16.11;34.53;101809.38;5081585;28;61904;-80
2022/04/10 10:04:43;;;;;;;;;8.00;7.00;;;;;16.11;34.91;101809.38;5082693;28;62106;-81
2022/04/10 10:07:15;;;;;;;;;5.00;5.00;;;;;16.18;34.58;101807.84;5080884;28;61870;-79
2022/04/10 10:09:42;;;;;;;;;6.25;3.50;;;;;16.27;34.28;101805.56;5080367;28;61758;-81
2022/04/10 10:12:08;;;;;;;;;7.25;6.00;;;;;16.27;33.79;101797.59;5082262;27;61961;-81
2022/04/10 10:14:35;;;;;;;;;7.00;6.50;;;;;16.32;34.21;101809.28;5082358;28;61880;-81
2022/04/10 10:17:03;;;;;;;;;6.50;6.00;;;;;16.31;33.34;101803.94;5097233;27;64589;-78
2022/04/10 10:19:30;;;;;;;;;5.50;5.50;;;;;16.23;32.85;101802.72;5079695;28;61967;-83
2022/04/10 10:21:56;;;;;;;;;7.75;5.00;;;;;16.07;33.86;101795.97;5080815;27;62435;-80
2022/04/10 10:24:27;;;;;;;;;8.25;6.00;;;;;16.15;33.71;101792.75;5081521;27;61888;-79
2022/04/10 10:27:34;;;;;;;;;7.75;6.00;;;;;16.21;34.44;101785.88;5080983;27;61846;-78
2022/04/10 10:30:11;;;;;;;;;10.75;7.00;;;;;16.31;33.55;101782.72;5083366;27;61834;-77
2022/04/10 10:32:44;;;;;;;;;5.75;5.75;;;;;16.45;34.34;101784.16;5083470;27;61903;-79
2022/04/10 10:35:26;;;;;;;;;6.00;5.25;;;;;16.54;33.72;101784.47;5081474;27;62097;-78
2022/04/10 10:37:53;;;;;;;;;5.00;5.00;;;;;16.57;33.07;101781.03;5077726;28;62880;-83
2022/04/10 10:40:20;;;;;;;;;6.25;5.25;;;;;16.67;33.62;101776.97;5081365;27;61886;-85
2022/04/10 10:42:48;;;;;;;;;10.50;6.25;;;;;16.74;33.30;101778.97;5082251;27;62131;-84
2022/04/10 10:45:38;;;;;;;;;6.00;5.00;;;;;16.80;33.80;101778.28;5099109;27;61900;-83
2022/04/10 10:48:31;;;;;;;;;9.50;5.75;;;;;16.85;33.43;101771.41;5082650;27;62703;-81
2022/04/10 10:51:10;;;;;;;;;6.75;5.00;;;;;16.92;34.32;101766.41;5082022;27;61675;-82
2022/04/10 10:53:53;;;;;;;;;7.50;6.25;;;;;17.06;34.21;101763.31;5083019;28;61988;-84
2022/04/10 10:56:29;;;;;;;;;4.25;4.25;;;;;17.16;33.28;101763.66;5083517;27;62173;-84
2022/04/10 10:59:15;;;;;;;;;5.50;5.25;;;;;17.27;32.68;101765.78;5097667;27;63996;-84
2022/04/10 11:01:51;;;;;;;;;8.00;7.75;;;;;17.44;33.72;101761.91;5082985;27;61786;-84
2022/04/10 11:04:22;;;;;;;;;6.00;5.00;;;;;17.47;30.52;101756.69;5082833;28;62039;-83
2022/04/10 11:06:48;;;;;;;;;3.25;2.75;;;;;17.60;32.21;101749.09;5081549;28;61837;-79
2022/04/10 11:09:27;;;;;;;;;4.00;4.00;;;;;17.76;31.91;101733.69;5081500;28;63215;-77
2022/04/10 11:11:53;;;;;;;;;6.25;3.00;;;;;17.98;32.67;101737.91;5081405;27;62171;-83
2022/04/10 11:14:40;;;;;;;;;3.75;3.75;;;;;18.21;31.32;101731.44;5080911;27;61971;-83
2022/04/10 11:17:19;;;;;;;;;7.00;5.00;;;;;18.46;32.37;101723.31;5079310;28;62044;-84
2022/04/10 11:19:52;;;;;;;;;7.75;5.00;;;;;18.75;30.70;101728.50;5078802;28;62837;-83
2022/04/10 11:22:21;;;;;;;;;5.75;4.75;;;;;18.93;30.14;101723.69;5080748;28;61805;-82